Cadillac, MI

1:37 PM EDT on August 30, 2014 (GMT -0400)
Wexford County | Change Station
CLOSE
Current Station
Airport
Location: Cadillac,
Elevation: 1306 ft
Nearby Weather Stations

Elev 1306 ft 44.28 °N, 85.42 °W | Updated 22 minutes ago

Overcast
Overcast
74 °F
Feels Like 74 °F
N
10
Wind Variable Wind from SW
Gusts 16 mph

Today
High -- | Low -- °F
--% Chance of Precip.
Yesterday
High -- | Low -- °F
Precip. -- in
7:02 AM 8:21 PM
Waxing Crescent, 23% visible
Pressure 29.82 in
Visibility 10.0 miles
Clouds Scattered Clouds 2300 ft
Mostly Cloudy 3100 ft
Overcast 6000 ft
Dew Point 69 °F
Humidity 86%
Rainfall 0.00 in
Snow Depth Not available.
UV 3 out of 12
Pollen 2.40 out of 12
Ozone Good
PM2.5 Moderate
Flu Activity Not available.
METAR KCAD 301715Z AUTO 22009G14KT 10SM SCT023 BKN031 OVC060 23/20 A2982 RMK AO2 T02330208

More Conditions Fewer Conditions

Pressure 29.82 in
Visibility 10.0 miles
Clouds Scattered Clouds 2300 ft
Mostly Cloudy 3100 ft
Overcast 6000 ft
Dew Point 69 °F
Humidity 86%
Rainfall 0.00 in
Snow Depth Not available.
UV 3 out of 12
Pollen 2.40 out of 12
Ozone Good
PM2.5 Moderate
Flu Activity Not available.
METAR KCAD 301715Z AUTO 22009G14KT 10SM SCT023 BKN031 OVC060 23/20 A2982 RMK AO2 T02330208

More Conditions Fewer Conditions

Nowcast | as of 1:00 PM EDT on August 30, 2014

At 2 PM...cloudy. Chance of thunderstorms. Temperature 75. Southwest winds 12 mph. At 4 PM...thunderstorms. Temperature 75. Southwest winds 13 mph. At 6 PM...thunderstorms. Temperature 73. Southwest winds 10 mph. At 8 PM...cloudy. Scattered thunderstorms. Temperature 70. Southwest winds 7 mph.

×

10-Day Weather Forecast

Almanac

Astronomy

Aug. 30, 2014 Rise Set
Actual Time 7:02 AM EDT 8:21 PM EDT
Civil Twilight 6:32 AM EDT 8:51 PM EDT
Nautical Twilight 5:56 AM EDT 9:27 PM EDT
Astronomical Twilight 5:17 AM EDT 10:05 PM EDT
Moon 12:01 PM EDT 10:42 PM EDT
Length of Visible Light 14h 19m
Length of Day
13h 19m
Tomorrow will be 2m 56s shorter.
Waxing Crescent, 23% of the Moon is Illuminated
Today
Waxing Crescent
Sep 2
First Quarter
Sep 8
Full
Sep 15
Last Quarter
Sep 24
New

Today's Extremes

State Highs State Lows

Community

WunderPhotos

Upload Photos

1,748,578 photos uploaded!

WunderBlogs® & News

Nearby

Air Quality

  Air Quality AQ Index Pollutant
Yesterday Good
PM2.5
Yesterday Good
OZONE
Current Moderate
PM2.5
Current Good
OZONE
Saturday Good
OZONE
Saturday Good
PM2.5
Sunday Good
OZONE
Sunday Good
PM2.5
Monday Good
OZONE
Monday Good
PM2.5
Tuesday Good
OZONE
Tuesday Good
PM2.5

Snow Depth

Station Depth Elevation
No new snow has been reported.

Earthquake Activity

City Distance Mag. Time & Date
No recent earthquake activity has been reported nearby.
Minimum magnitude displayed is 2.5.

Coastal Water Temperatures

Place Temperature
No Stations Reporting

Nearby Weather Stations